Terminal Aerodrome Forecast
Issued by NWS

Home | Current Version | Previous Version | Text Only | Print | Product List | Glossary On
Versions: 1 2 3 4 5 6 7 8 9 10 11 12 13 14 15 16 17
000
FTUS43 KIND 181536 AAA
TAFLAF
TAF AMD
KLAF 181536Z 1816/1912 27012KT P6SM SCT020
     FM181800 28012KT P6SM SCT035
     FM190100 VRB03KT P6SM FEW250
     FM190800 VRB03KT 5SM BR BKN090
     FM190900 VRB03KT 5SM -SHRA BR VCTS BKN040CB=

USA.gov is the U.S. government's official web portal to all federal, state and local government web resources and services.